Time;durP1;ratioP1;P1;durP2;ratioP2;P2;SDS_P1;SDS_P2;PMS_P1;PMS_P2;Temp;Humidity;BMP_temperature;BMP_pressure;BME280_temperature;BME280_humidity;BME280_pressure;Samples;Min_cycle;Max_cycle;Signal;HPM_P1;HPM_P2
2023/12/08 00:00:21;;;;;;;19.30;14.13;;;;;;;;;;5080702;28;20048;-78
2023/12/08 00:02:47;;;;;;;19.50;14.55;;;;;;;;;;5080255;28;20100;-78
2023/12/08 00:05:14;;;;;;;18.42;14.07;;;;;;;;;;5079967;28;20036;-78
2023/12/08 00:07:40;;;;;;;19.45;13.00;;;;;;;;;;5097083;28;20048;-78
2023/12/08 00:10:06;;;;;;;19.77;14.25;;;;;;;;;;5097084;28;20096;-78
2023/12/08 00:12:33;;;;;;;18.77;13.77;;;;;;;;;;5096970;28;20043;-78
2023/12/08 00:14:59;;;;;;;17.83;14.25;;;;;;;;;;5080299;28;20047;-78
2023/12/08 00:17:26;;;;;;;17.75;12.43;;;;;;;;;;5080135;28;20047;-78
2023/12/08 00:19:53;;;;;;;17.08;13.18;;;;;;;;;;5097125;28;20052;-78
2023/12/08 00:22:19;;;;;;;16.40;12.35;;;;;;;;;;5097060;28;20040;-78
2023/12/08 00:24:45;;;;;;;18.63;12.50;;;;;;;;;;5096589;28;20047;-78
2023/12/08 00:27:11;;;;;;;17.73;13.23;;;;;;;;;;5096350;28;20052;-78
2023/12/08 00:29:38;;;;;;;19.23;14.13;;;;;;;;;;5080101;28;20494;-78
2023/12/08 00:32:05;;;;;;;16.75;13.00;;;;;;;;;;5096224;28;20051;-79
2023/12/08 00:34:31;;;;;;;17.25;13.55;;;;;;;;;;5114155;28;20111;-78
2023/12/08 00:36:57;;;;;;;20.02;15.35;;;;;;;;;;5095879;28;20043;-78
2023/12/08 00:39:23;;;;;;;17.10;13.85;;;;;;;;;;5079874;28;20502;-78
2023/12/08 00:41:49;;;;;;;17.13;13.98;;;;;;;;;;5062742;28;20506;-78
2023/12/08 00:44:16;;;;;;;20.77;15.52;;;;;;;;;;5096524;28;20074;-78
2023/12/08 00:46:42;;;;;;;16.58;12.00;;;;;;;;;;5079752;28;20035;-78
2023/12/08 00:49:08;;;;;;;20.50;14.65;;;;;;;;;;5096600;28;20051;-78
2023/12/08 00:51:34;;;;;;;21.67;14.80;;;;;;;;;;5096128;28;20547;-78
2023/12/08 00:54:00;;;;;;;19.52;15.15;;;;;;;;;;5096784;28;20501;-78
2023/12/08 00:56:27;;;;;;;20.13;15.07;;;;;;;;;;5080069;28;20079;-78
2023/12/08 00:58:53;;;;;;;19.77;15.43;;;;;;;;;;5096160;28;20055;-78
2023/12/08 01:01:19;;;;;;;20.50;15.40;;;;;;;;;;5114217;28;20066;-78
2023/12/08 01:03:46;;;;;;;21.40;15.50;;;;;;;;;;5096531;28;20039;-78
2023/12/08 01:06:12;;;;;;;21.10;16.13;;;;;;;;;;5079125;28;20051;-78
2023/12/08 01:08:38;;;;;;;22.50;16.90;;;;;;;;;;5096322;28;20147;-78
2023/12/08 01:11:06;;;;;;;20.67;15.20;;;;;;;;;;5096135;28;20051;-78
2023/12/08 01:13:32;;;;;;;20.73;16.48;;;;;;;;;;5079392;28;20055;-78
2023/12/08 01:15:58;;;;;;;20.00;16.30;;;;;;;;;;5079319;28;20103;-78
2023/12/08 01:18:24;;;;;;;22.05;16.80;;;;;;;;;;5079351;28;20051;-78
2023/12/08 01:20:51;;;;;;;21.65;16.70;;;;;;;;;;5096201;28;20488;-78
2023/12/08 01:23:18;;;;;;;23.00;16.05;;;;;;;;;;5080012;28;20139;-78
2023/12/08 01:25:44;;;;;;;20.15;15.02;;;;;;;;;;5083625;28;20148;-78
2023/12/08 01:28:10;;;;;;;21.30;16.95;;;;;;;;;;5099345;28;20044;-78
2023/12/08 01:30:36;;;;;;;20.67;16.17;;;;;;;;;;5083505;28;20051;-78
2023/12/08 01:33:03;;;;;;;20.48;15.70;;;;;;;;;;5083660;28;20052;-78
2023/12/08 01:35:29;;;;;;;21.30;14.73;;;;;;;;;;5083583;28;20059;-78
2023/12/08 01:37:55;;;;;;;22.95;16.95;;;;;;;;;;5118062;28;20400;-78
2023/12/08 01:40:21;;;;;;;19.50;14.98;;;;;;;;;;5100134;28;20050;-78
2023/12/08 01:42:47;;;;;;;16.77;12.10;;;;;;;;;;5099756;28;20052;-78
2023/12/08 01:45:13;;;;;;;19.73;15.10;;;;;;;;;;5099753;28;20051;-78
2023/12/08 01:47:41;;;;;;;18.35;15.30;;;;;;;;;;5100028;28;20052;-78
2023/12/08 01:50:07;;;;;;;19.95;15.23;;;;;;;;;;5100033;28;20130;-78
2023/12/08 01:52:34;;;;;;;18.83;15.93;;;;;;;;;;5083027;28;20058;-78
2023/12/08 01:55:00;;;;;;;20.33;16.38;;;;;;;;;;5082927;28;20506;-78
2023/12/08 01:57:26;;;;;;;19.77;13.80;;;;;;;;;;5099777;28;20051;-78
2023/12/08 01:59:52;;;;;;;23.42;17.50;;;;;;;;;;5100112;28;20051;-78
2023/12/08 02:02:20;;;;;;;20.05;15.60;;;;;;;;;;5099855;28;20047;-78
2023/12/08 02:04:48;;;;;;;20.50;16.05;;;;;;;;;;5099387;28;20046;-78
2023/12/08 02:07:14;;;;;;;17.80;9.80;;;;;;;;;;5082958;28;20101;-78
2023/12/08 02:09:41;;;;;;;20.95;15.65;;;;;;;;;;5099814;28;20391;-78
2023/12/08 02:12:07;;;;;;;21.38;16.55;;;;;;;;;;5117382;28;20044;-78
2023/12/08 02:14:33;;;;;;;20.35;15.75;;;;;;;;;;5099493;28;20047;-78
2023/12/08 02:17:03;;;;;;;20.23;16.25;;;;;;;;;;5099231;28;20380;-78
2023/12/08 02:19:29;;;;;;;21.67;16.27;;;;;;;;;;5099551;28;20136;-78
2023/12/08 02:21:56;;;;;;;21.73;15.90;;;;;;;;;;5117022;28;20051;-78
2023/12/08 02:24:22;;;;;;;22.73;15.88;;;;;;;;;;5099301;28;20043;-78
2023/12/08 02:26:48;;;;;;;24.20;17.83;;;;;;;;;;5098716;28;20047;-78
2023/12/08 02:29:14;;;;;;;19.70;13.95;;;;;;;;;;5099230;28;20043;-78
2023/12/08 02:31:52;;;;;;;21.23;15.82;;;;;;;;;;5082123;28;20047;-78
2023/12/08 02:34:20;;;;;;;21.13;16.77;;;;;;;;;;5099426;28;20052;-78
2023/12/08 02:36:46;;;;;;;20.77;15.45;;;;;;;;;;5099092;28;20040;-78
2023/12/08 02:39:14;;;;;;;21.85;17.35;;;;;;;;;;5098848;28;20082;-78
2023/12/08 02:41:42;;;;;;;20.17;16.30;;;;;;;;;;5098769;28;20101;-78
2023/12/08 02:44:08;;;;;;;21.58;17.02;;;;;;;;;;5099004;28;20086;-78
2023/12/08 02:46:34;;;;;;;22.08;16.92;;;;;;;;;;5082006;28;20040;-78
2023/12/08 02:49:00;;;;;;;25.88;18.52;;;;;;;;;;5082219;28;20476;-78
2023/12/08 02:51:26;;;;;;;22.85;17.75;;;;;;;;;;5081987;28;20437;-78
2023/12/08 02:53:52;;;;;;;22.38;16.98;;;;;;;;;;5081579;28;20476;-78
2023/12/08 02:56:18;;;;;;;23.85;17.75;;;;;;;;;;5098447;28;20047;-78
2023/12/08 02:58:45;;;;;;;21.25;15.57;;;;;;;;;;5097893;28;20051;-78
2023/12/08 03:01:11;;;;;;;20.95;17.20;;;;;;;;;;5098599;28;20047;-78
2023/12/08 03:03:37;;;;;;;20.30;15.95;;;;;;;;;;5098552;28;20044;-78
2023/12/08 03:06:03;;;;;;;23.60;16.60;;;;;;;;;;5116479;28;20049;-78
2023/12/08 03:08:29;;;;;;;20.58;16.38;;;;;;;;;;5116487;28;20048;-78
2023/12/08 03:10:55;;;;;;;21.90;16.75;;;;;;;;;;5098410;28;20054;-78
2023/12/08 03:13:22;;;;;;;21.65;16.90;;;;;;;;;;5098479;28;20368;-78
2023/12/08 03:15:48;;;;;;;22.70;16.15;;;;;;;;;;5081133;28;20043;-78
2023/12/08 03:18:15;;;;;;;22.13;16.55;;;;;;;;;;5098272;28;20047;-78
2023/12/08 03:20:41;;;;;;;20.20;16.20;;;;;;;;;;5098260;28;20097;-78
2023/12/08 03:23:07;;;;;;;21.75;15.13;;;;;;;;;;5097625;28;20050;-78
2023/12/08 03:25:33;;;;;;;22.98;17.40;;;;;;;;;;5097815;28;20036;-78
2023/12/08 03:27:59;;;;;;;24.15;18.67;;;;;;;;;;5097229;28;20044;-78
2023/12/08 03:30:25;;;;;;;22.73;17.83;;;;;;;;;;5080951;28;20123;-78
2023/12/08 03:32:51;;;;;;;24.00;17.40;;;;;;;;;;5081423;28;20047;-78
2023/12/08 03:35:17;;;;;;;23.33;17.40;;;;;;;;;;5080680;28;20079;-78
2023/12/08 03:37:43;;;;;;;25.55;18.55;;;;;;;;;;5081094;28;20050;-77
2023/12/08 03:40:09;;;;;;;25.83;17.65;;;;;;;;;;5098418;28;20059;-78
2023/12/08 03:42:36;;;;;;;24.88;17.58;;;;;;;;;;5097452;28;20083;-78
2023/12/08 03:45:03;;;;;;;23.35;17.25;;;;;;;;;;5097416;28;20479;-78
2023/12/08 03:47:29;;;;;;;23.23;18.02;;;;;;;;;;5097356;28;20095;-78
2023/12/08 03:49:55;;;;;;;23.65;17.77;;;;;;;;;;5080970;28;20040;-78
2023/12/08 03:52:21;;;;;;;23.17;17.98;;;;;;;;;;5115153;28;20047;-78
2023/12/08 03:54:47;;;;;;;23.90;17.00;;;;;;;;;;5097554;28;20136;-77
2023/12/08 03:57:13;;;;;;;23.45;18.38;;;;;;;;;;5080088;28;20051;-78
2023/12/08 03:59:42;;;;;;;25.67;17.40;;;;;;;;;;5097581;28;20051;-77
2023/12/08 04:02:08;;;;;;;25.73;18.15;;;;;;;;;;5097435;28;20050;-77
2023/12/08 04:04:34;;;;;;;27.50;17.98;;;;;;;;;;5080115;28;20043;-77
2023/12/08 04:07:00;;;;;;;24.10;17.83;;;;;;;;;;5097345;28;20044;-78
2023/12/08 04:09:26;;;;;;;23.23;18.02;;;;;;;;;;5097320;28;20050;-77
2023/12/08 04:11:52;;;;;;;23.48;17.00;;;;;;;;;;5080175;28;20131;-77
2023/12/08 04:14:18;;;;;;;24.75;16.40;;;;;;;;;;5097230;28;20047;-78
2023/12/08 04:16:44;;;;;;;25.95;18.33;;;;;;;;;;5080310;28;20051;-78
2023/12/08 04:19:12;;;;;;;25.08;17.55;;;;;;;;;;5097081;28;20047;-78
2023/12/08 04:21:38;;;;;;;20.65;16.35;;;;;;;;;;5096960;28;20048;-78
2023/12/08 04:24:05;;;;;;;22.25;16.98;;;;;;;;;;5096941;28;20048;-77
2023/12/08 04:26:31;;;;;;;23.42;17.05;;;;;;;;;;5097077;28;20111;-77
2023/12/08 04:28:57;;;;;;;22.08;16.67;;;;;;;;;;5096247;28;20044;-78
2023/12/08 04:31:23;;;;;;;25.45;17.50;;;;;;;;;;5080043;28;20039;-77
2023/12/08 04:33:49;;;;;;;23.63;16.08;;;;;;;;;;5095987;28;20047;-77
2023/12/08 04:36:15;;;;;;;22.40;17.05;;;;;;;;;;5079556;28;20051;-78
2023/12/08 04:38:41;;;;;;;26.95;18.10;;;;;;;;;;5079324;28;20126;-77
2023/12/08 04:41:07;;;;;;;28.52;18.38;;;;;;;;;;5096748;28;20047;-77
2023/12/08 04:43:33;;;;;;;23.58;16.63;;;;;;;;;;5092978;28;20063;-77
2023/12/08 04:45:59;;;;;;;23.98;18.38;;;;;;;;;;5093230;28;20052;-77
2023/12/08 04:48:25;;;;;;;24.75;18.33;;;;;;;;;;5093199;28;20131;-77
2023/12/08 04:50:52;;;;;;;27.75;17.92;;;;;;;;;;5093035;28;20048;-77
2023/12/08 04:53:18;;;;;;;23.48;17.05;;;;;;;;;;5093110;28;20094;-77
2023/12/08 04:55:44;;;;;;;26.30;17.15;;;;;;;;;;5092962;28;20048;-77
2023/12/08 04:58:10;;;;;;;26.83;18.52;;;;;;;;;;5091682;28;20048;-77
2023/12/08 05:00:36;;;;;;;22.08;17.58;;;;;;;;;;5093069;28;20040;-77
2023/12/08 05:03:02;;;;;;;25.55;18.60;;;;;;;;;;5092016;28;20470;-77
2023/12/08 05:05:28;;;;;;;26.67;18.13;;;;;;;;;;5092016;28;20048;-77
2023/12/08 05:07:54;;;;;;;27.02;18.67;;;;;;;;;;5093400;28;20048;-77
2023/12/08 05:10:20;;;;;;;24.05;17.90;;;;;;;;;;5092985;28;20043;-77
2023/12/08 05:12:47;;;;;;;26.63;19.10;;;;;;;;;;5059594;28;20123;-77
2023/12/08 05:15:13;;;;;;;27.75;18.88;;;;;;;;;;5092482;28;20047;-77
2023/12/08 05:17:40;;;;;;;28.85;18.70;;;;;;;;;;5092580;28;20081;-77
2023/12/08 05:20:07;;;;;;;27.00;18.70;;;;;;;;;;5076057;28;20148;-77
2023/12/08 05:22:33;;;;;;;26.65;19.17;;;;;;;;;;5092332;28;20047;-77
2023/12/08 05:24:59;;;;;;;28.58;20.50;;;;;;;;;;5075779;28;20050;-77
2023/12/08 05:27:25;;;;;;;27.70;19.48;;;;;;;;;;5093230;28;20044;-77
2023/12/08 05:29:51;;;;;;;26.98;19.23;;;;;;;;;;5076142;28;20113;-77
2023/12/08 05:32:17;;;;;;;27.63;19.58;;;;;;;;;;5092526;28;20051;-77
2023/12/08 05:34:43;;;;;;;26.77;20.42;;;;;;;;;;5092986;28;20095;-77
2023/12/08 05:37:09;;;;;;;28.73;20.08;;;;;;;;;;5092628;28;20044;-77
2023/12/08 05:39:35;;;;;;;24.98;18.75;;;;;;;;;;5092362;28;20407;-77
2023/12/08 05:42:02;;;;;;;28.02;19.40;;;;;;;;;;5075703;28;20404;-77
2023/12/08 05:44:28;;;;;;;26.17;17.35;;;;;;;;;;5075189;28;20052;-77
2023/12/08 05:46:55;;;;;;;23.27;16.30;;;;;;;;;;5092133;28;20131;-77
2023/12/08 05:49:21;;;;;;;27.65;20.20;;;;;;;;;;5092539;28;20040;-78
2023/12/08 05:51:47;;;;;;;27.63;19.88;;;;;;;;;;5076448;28;20055;-77
2023/12/08 05:54:13;;;;;;;18.52;11.32;;;;;;;;;;5092564;28;20442;-77
2023/12/08 05:56:39;;;;;;;31.00;20.27;;;;;;;;;;5093463;28;20055;-77
2023/12/08 05:59:05;;;;;;;29.02;19.45;;;;;;;;;;5092107;28;20103;-77
2023/12/08 06:01:31;;;;;;;27.83;20.60;;;;;;;;;;5092477;28;20053;-77
2023/12/08 06:03:57;;;;;;;29.75;19.33;;;;;;;;;;5092361;28;20129;-78
2023/12/08 06:06:26;;;;;;;33.42;21.55;;;;;;;;;;5092460;28;20051;-77
2023/12/08 06:08:52;;;;;;;29.10;21.00;;;;;;;;;;5092512;28;20135;-77
2023/12/08 06:11:18;;;;;;;28.55;20.30;;;;;;;;;;5097241;28;20117;-77
2023/12/08 06:13:45;;;;;;;28.88;20.13;;;;;;;;;;5079428;28;20117;-77
2023/12/08 06:16:11;;;;;;;27.88;20.17;;;;;;;;;;5097024;28;20116;-78
2023/12/08 06:18:37;;;;;;;27.15;19.35;;;;;;;;;;5079380;28;20051;-78
2023/12/08 06:21:03;;;;;;;30.65;20.23;;;;;;;;;;5095977;28;20123;-77
2023/12/08 06:23:29;;;;;;;30.05;21.02;;;;;;;;;;5095891;28;20048;-77
2023/12/08 06:25:55;;;;;;;27.42;18.80;;;;;;;;;;5096178;28;20377;-77
2023/12/08 06:28:21;;;;;;;29.02;19.35;;;;;;;;;;5096338;28;20412;-78
2023/12/08 06:30:47;;;;;;;29.20;20.13;;;;;;;;;;5095767;28;20055;-78
2023/12/08 06:33:14;;;;;;;29.65;19.20;;;;;;;;;;5095781;28;20044;-78
2023/12/08 06:35:40;;;;;;;31.30;20.63;;;;;;;;;;5095752;28;20100;-77
2023/12/08 06:38:06;;;;;;;26.77;18.75;;;;;;;;;;5095673;28;20095;-77
2023/12/08 06:40:32;;;;;;;30.35;19.38;;;;;;;;;;5078806;28;20101;-77
2023/12/08 06:42:58;;;;;;;27.23;19.40;;;;;;;;;;5095304;28;20052;-77
2023/12/08 06:45:24;;;;;;;28.92;20.45;;;;;;;;;;5094642;28;20091;-78
2023/12/08 06:47:50;;;;;;;31.48;21.23;;;;;;;;;;5095496;28;20127;-77
2023/12/08 06:50:16;;;;;;;30.23;20.65;;;;;;;;;;5095431;28;20071;-78
2023/12/08 06:52:44;;;;;;;28.23;20.52;;;;;;;;;;5096260;28;20400;-78
2023/12/08 06:55:10;;;;;;;29.90;20.88;;;;;;;;;;5096278;28;20050;-78
2023/12/08 06:57:36;;;;;;;32.58;20.85;;;;;;;;;;5095973;28;20492;-78
2023/12/08 07:00:07;;;;;;;31.88;20.95;;;;;;;;;;5095074;28;20484;-78
2023/12/08 07:02:33;;;;;;;30.80;22.20;;;;;;;;;;5078344;28;20051;-78
2023/12/08 07:04:59;;;;;;;33.13;21.05;;;;;;;;;;5094904;28;20040;-78
2023/12/08 07:07:25;;;;;;;31.27;22.60;;;;;;;;;;5094977;28;20463;-77
2023/12/08 07:09:52;;;;;;;28.02;20.10;;;;;;;;;;5096277;28;20087;-78
2023/12/08 07:12:18;;;;;;;30.67;21.23;;;;;;;;;;5094971;28;20199;-78
2023/12/08 07:14:44;;;;;;;30.10;21.27;;;;;;;;;;5096002;28;20084;-77
2023/12/08 07:17:10;;;;;;;33.65;21.25;;;;;;;;;;5094972;28;20369;-77
2023/12/08 07:19:38;;;;;;;31.58;20.95;;;;;;;;;;5094897;28;20396;-78
2023/12/08 07:22:04;;;;;;;31.60;21.02;;;;;;;;;;5094195;28;20048;-78
2023/12/08 07:24:30;;;;;;;29.80;20.70;;;;;;;;;;5095429;28;20616;-78
2023/12/08 07:26:56;;;;;;;32.58;20.73;;;;;;;;;;5095384;28;20044;-79
2023/12/08 07:29:23;;;;;;;32.70;21.60;;;;;;;;;;5094999;28;20091;-78
2023/12/08 07:31:49;;;;;;;29.00;21.02;;;;;;;;;;5094974;28;20437;-78
2023/12/08 07:34:15;;;;;;;31.65;21.42;;;;;;;;;;5077874;28;20446;-77
2023/12/08 07:36:41;;;;;;;28.73;19.27;;;;;;;;;;5094225;28;20067;-78
2023/12/08 07:39:09;;;;;;;25.63;19.05;;;;;;;;;;5060620;28;20048;-78
2023/12/08 07:41:35;;;;;;;31.65;21.13;;;;;;;;;;5094601;28;20039;-78
2023/12/08 07:44:01;;;;;;;30.30;19.30;;;;;;;;;;5115334;28;20092;-78
2023/12/08 07:46:27;;;;;;;31.23;22.25;;;;;;;;;;5097177;28;20445;-78
2023/12/08 07:48:54;;;;;;;28.63;20.55;;;;;;;;;;5080375;28;20043;-78
2023/12/08 07:51:20;;;;;;;31.73;20.20;;;;;;;;;;5080103;28;20043;-79
2023/12/08 07:53:46;;;;;;;31.88;21.70;;;;;;;;;;5096571;28;20079;-79
2023/12/08 07:56:13;;;;;;;30.90;21.17;;;;;;;;;;5097099;28;20433;-78
2023/12/08 07:58:39;;;;;;;29.73;21.00;;;;;;;;;;5096349;28;20395;-79
2023/12/08 08:01:06;;;;;;;31.33;22.25;;;;;;;;;;5100376;28;20080;-79
2023/12/08 08:03:32;;;;;;;32.40;19.95;;;;;;;;;;5101361;28;20040;-79
2023/12/08 08:05:58;;;;;;;26.52;19.63;;;;;;;;;;5072980;28;20055;-79
2023/12/08 08:08:24;;;;;;;29.77;20.73;;;;;;;;;;5097088;28;20141;-79
2023/12/08 08:10:50;;;;;;;30.05;20.80;;;;;;;;;;5097592;28;20052;-79
2023/12/08 08:13:16;;;;;;;32.30;21.65;;;;;;;;;;5082302;28;20051;-79
2023/12/08 08:15:42;;;;;;;30.10;21.40;;;;;;;;;;5111835;28;20080;-79
2023/12/08 08:18:08;;;;;;;28.30;20.60;;;;;;;;;;5114115;28;20055;-79
2023/12/08 08:20:34;;;;;;;28.13;19.65;;;;;;;;;;5075969;28;20047;-79
2023/12/08 08:23:00;;;;;;;34.47;20.90;;;;;;;;;;5097193;28;20073;-78
2023/12/08 08:25:26;;;;;;;29.40;20.00;;;;;;;;;;5113727;28;20040;-78
2023/12/08 08:27:53;;;;;;;29.73;20.55;;;;;;;;;;5113567;28;20112;-79
2023/12/08 08:30:20;;;;;;;30.75;19.95;;;;;;;;;;5097043;28;20078;-79
2023/12/08 08:32:46;;;;;;;32.63;21.67;;;;;;;;;;5113780;28;20122;-79
2023/12/08 08:35:12;;;;;;;32.40;21.40;;;;;;;;;;5097399;28;20044;-79
2023/12/08 08:37:38;;;;;;;32.40;21.20;;;;;;;;;;5114104;28;20094;-79
2023/12/08 08:40:05;;;;;;;28.25;19.88;;;;;;;;;;5113742;28;20139;-79
2023/12/08 08:42:31;;;;;;;30.98;20.80;;;;;;;;;;5100449;28;20059;-79
2023/12/08 08:44:57;;;;;;;28.42;20.42;;;;;;;;;;5075844;28;20051;-80
2023/12/08 08:47:23;;;;;;;32.10;21.33;;;;;;;;;;5092580;28;20048;-80
2023/12/08 08:49:50;;;;;;;30.27;21.63;;;;;;;;;;5092070;28;20037;-80
2023/12/08 08:52:16;;;;;;;33.20;21.27;;;;;;;;;;5075869;28;20139;-80
2023/12/08 08:54:42;;;;;;;30.25;21.50;;;;;;;;;;5092384;28;20048;-80
2023/12/08 08:57:08;;;;;;;28.00;19.67;;;;;;;;;;5074742;28;20054;-80
2023/12/08 08:59:34;;;;;;;28.35;21.50;;;;;;;;;;5092382;28;20048;-80
2023/12/08 09:02:00;;;;;;;29.50;20.90;;;;;;;;;;5089718;28;20052;-83
2023/12/08 09:04:26;;;;;;;28.27;20.90;;;;;;;;;;5092388;28;20476;-80
2023/12/08 09:06:52;;;;;;;27.73;20.17;;;;;;;;;;5092953;28;20044;-80
2023/12/08 09:09:18;;;;;;;29.65;20.88;;;;;;;;;;5093015;28;20073;-80
2023/12/08 09:11:44;;;;;;;28.83;22.08;;;;;;;;;;5076224;28;20055;-80
2023/12/08 09:14:10;;;;;;;30.55;21.45;;;;;;;;;;5092916;28;20101;-80
2023/12/08 09:16:36;;;;;;;26.98;20.08;;;;;;;;;;5059520;28;20091;-80
2023/12/08 09:19:03;;;;;;;29.20;21.52;;;;;;;;;;5076200;28;20052;-80
2023/12/08 09:21:29;;;;;;;31.15;21.58;;;;;;;;;;5092852;28;20126;-80
2023/12/08 09:23:55;;;;;;;30.63;21.48;;;;;;;;;;5092699;28;20047;-80
2023/12/08 09:26:21;;;;;;;29.05;21.15;;;;;;;;;;5092793;28;20043;-80
2023/12/08 09:28:47;;;;;;;29.40;19.17;;;;;;;;;;5075362;28;20048;-80
2023/12/08 09:31:13;;;;;;;31.27;21.05;;;;;;;;;;5092962;28;20396;-80
2023/12/08 09:33:41;;;;;;;32.95;22.02;;;;;;;;;;5091996;28;20475;-80
2023/12/08 09:36:08;;;;;;;28.25;20.83;;;;;;;;;;5089690;28;20044;-81
2023/12/08 09:38:34;;;;;;;30.27;21.08;;;;;;;;;;5075458;28;20051;-80
2023/12/08 09:41:01;;;;;;;32.15;22.25;;;;;;;;;;5091909;28;20625;-80
2023/12/08 09:43:34;;;;;;;31.23;20.48;;;;;;;;;;5092546;28;20104;-81
2023/12/08 09:46:01;;;;;;;31.10;21.48;;;;;;;;;;5079168;28;20051;-81
2023/12/08 09:48:29;;;;;;;31.80;22.35;;;;;;;;;;5096168;28;20078;-80
2023/12/08 09:50:56;;;;;;;30.67;22.15;;;;;;;;;;5095932;28;20044;-80
2023/12/08 09:53:22;;;;;;;34.53;22.75;;;;;;;;;;5095627;28;20042;-81
2023/12/08 09:55:48;;;;;;;30.63;21.75;;;;;;;;;;5079314;28;20052;-81
2023/12/08 09:58:17;;;;;;;33.10;21.58;;;;;;;;;;5078585;28;20044;-80
2023/12/08 10:00:43;;;;;;;31.95;22.88;;;;;;;;;;5096049;28;20085;-80
2023/12/08 10:03:10;;;;;;;31.77;22.40;;;;;;;;;;5096062;28;20395;-80
2023/12/08 10:05:37;;;;;;;30.38;21.63;;;;;;;;;;5078988;28;20496;-80
2023/12/08 10:08:03;;;;;;;31.23;20.73;;;;;;;;;;5095879;28;20044;-80
2023/12/08 10:10:30;;;;;;;29.45;21.48;;;;;;;;;;5095768;28;20051;-80
2023/12/08 10:12:56;;;;;;;28.65;21.23;;;;;;;;;;5095748;28;20090;-79
2023/12/08 10:15:23;;;;;;;31.48;22.15;;;;;;;;;;5095798;28;20480;-79
2023/12/08 10:17:51;;;;;;;34.42;24.00;;;;;;;;;;5096087;28;20063;-79
2023/12/08 10:20:17;;;;;;;33.50;21.52;;;;;;;;;;5096197;28;20094;-79
2023/12/08 10:22:47;;;;;;;39.80;26.08;;;;;;;;;;5079110;28;20047;-79
2023/12/08 10:25:16;;;;;;;38.75;25.95;;;;;;;;;;5096890;28;20052;-79
2023/12/08 10:27:42;;;;;;;36.45;25.33;;;;;;;;;;5095503;28;20069;-79
2023/12/08 10:30:08;;;;;;;33.78;22.55;;;;;;;;;;5095941;28;20404;-79
2023/12/08 10:32:34;;;;;;;42.95;26.48;;;;;;;;;;5078725;28;20048;-79
2023/12/08 10:35:01;;;;;;;34.55;23.38;;;;;;;;;;5078827;28;20051;-79
2023/12/08 10:37:27;;;;;;;35.55;22.85;;;;;;;;;;5096642;28;20051;-79
2023/12/08 10:39:53;;;;;;;37.13;24.58;;;;;;;;;;5096676;28;20051;-79
2023/12/08 10:42:19;;;;;;;40.90;26.05;;;;;;;;;;5095378;28;20056;-79
2023/12/08 10:44:46;;;;;;;36.17;24.52;;;;;;;;;;5095374;28;20044;-79
2023/12/08 10:47:13;;;;;;;39.97;24.38;;;;;;;;;;5078280;28;20112;-79
2023/12/08 10:49:39;;;;;;;39.22;24.77;;;;;;;;;;5095452;28;20123;-79
2023/12/08 10:52:06;;;;;;;38.95;25.05;;;;;;;;;;5095445;28;20040;-79
2023/12/08 10:54:32;;;;;;;43.58;27.25;;;;;;;;;;5095058;28;20040;-79
2023/12/08 10:56:59;;;;;;;43.30;24.73;;;;;;;;;;5077218;28;20444;-79
2023/12/08 10:59:26;;;;;;;44.15;26.80;;;;;;;;;;5094862;28;20070;-79
2023/12/08 11:01:55;;;;;;;42.80;25.60;;;;;;;;;;5095241;28;20529;-79
2023/12/08 11:04:22;;;;;;;44.20;25.70;;;;;;;;;;5095022;28;20044;-79
2023/12/08 11:06:54;;;;;;;51.35;28.13;;;;;;;;;;5078234;28;20090;-79
2023/12/08 11:09:22;;;;;;;46.28;27.27;;;;;;;;;;5095271;28;20373;-79
2023/12/08 11:11:52;;;;;;;54.17;28.83;;;;;;;;;;5078198;28;20048;-78
2023/12/08 11:14:28;;;;;;;48.50;27.50;;;;;;;;;;5096606;28;20048;-78
2023/12/08 11:16:58;;;;;;;54.30;27.92;;;;;;;;;;5095060;28;20083;-78
2023/12/08 11:19:25;;;;;;;60.13;29.25;;;;;;;;;;5094926;28;20044;-78
2023/12/08 11:21:52;;;;;;;53.33;29.55;;;;;;;;;;5095039;28;20052;-78
2023/12/08 11:24:19;;;;;;;54.35;28.58;;;;;;;;;;5095862;28;20048;-78
2023/12/08 11:26:51;;;;;;;55.35;28.65;;;;;;;;;;5094788;28;20051;-78
2023/12/08 11:29:17;;;;;;;55.17;30.98;;;;;;;;;;5095338;28;20097;-78
2023/12/08 11:31:47;;;;;;;54.78;29.92;;;;;;;;;;5095938;28;20044;-78
2023/12/08 11:34:39;;;;;;;48.33;27.92;;;;;;;;;;5078020;28;20056;-78
2023/12/08 11:37:08;;;;;;;56.00;30.10;;;;;;;;;;5072000;28;20055;-78
2023/12/08 11:39:34;;;;;;;48.78;28.67;;;;;;;;;;5077847;28;20134;-78
2023/12/08 11:42:10;;;;;;;74.93;31.92;;;;;;;;;;5093992;28;20048;-78
2023/12/08 11:44:37;;;;;;;58.53;30.13;;;;;;;;;;5094471;28;20048;-78
2023/12/08 11:47:05;;;;;;;65.90;30.80;;;;;;;;;;5094439;28;20426;-78
2023/12/08 11:49:31;;;;;;;59.92;31.13;;;;;;;;;;5077274;28;20484;-78
2023/12/08 11:52:11;;;;;;;65.57;34.35;;;;;;;;;;5095217;28;20044;-78
2023/12/08 11:54:55;;;;;;;54.38;30.63;;;;;;;;;;5095213;28;20051;-78
2023/12/08 11:57:21;;;;;;;65.10;31.60;;;;;;;;;;5093500;28;20044;-79
2023/12/08 11:59:47;;;;;;;60.22;32.45;;;;;;;;;;5095091;28;20043;-78
2023/12/08 12:02:13;;;;;;;61.22;31.25;;;;;;;;;;5093901;28;20407;-78
2023/12/08 12:04:39;;;;;;;58.70;32.65;;;;;;;;;;5093807;28;20131;-78
2023/12/08 12:07:08;;;;;;;57.00;31.48;;;;;;;;;;5094574;28;20059;-78
2023/12/08 12:09:34;;;;;;;56.72;32.20;;;;;;;;;;5077444;28;20055;-78
2023/12/08 12:12:04;;;;;;;60.05;32.60;;;;;;;;;;5093904;28;20047;-78
2023/12/08 12:14:31;;;;;;;59.67;33.25;;;;;;;;;;5094166;28;20052;-79
2023/12/08 12:16:57;;;;;;;61.10;31.23;;;;;;;;;;5093808;28;20397;-79
2023/12/08 12:19:24;;;;;;;65.15;30.85;;;;;;;;;;5077066;28;20048;-79
2023/12/08 12:21:50;;;;;;;62.33;31.98;;;;;;;;;;5094693;28;20044;-79
2023/12/08 12:24:16;;;;;;;61.65;31.83;;;;;;;;;;5093571;28;20047;-79
2023/12/08 12:26:42;;;;;;;73.13;33.08;;;;;;;;;;5093763;28;20048;-78
2023/12/08 12:29:08;;;;;;;98.60;35.28;;;;;;;;;;5094129;28;20048;-78
2023/12/08 12:31:34;;;;;;;64.85;33.03;;;;;;;;;;5076433;28;20373;-78
2023/12/08 12:34:00;;;;;;;93.07;35.88;;;;;;;;;;5076495;28;20093;-78
2023/12/08 12:36:26;;;;;;;90.32;36.47;;;;;;;;;;5076522;28;20134;-79
2023/12/08 12:38:52;;;;;;;61.13;32.47;;;;;;;;;;5093285;28;20044;-78
2023/12/08 12:41:25;;;;;;;65.82;33.58;;;;;;;;;;5094070;28;20048;-78
2023/12/08 12:44:01;;;;;;;75.35;35.28;;;;;;;;;;5113980;28;20068;-78
2023/12/08 12:46:45;;;;;;;67.70;34.35;;;;;;;;;;5114718;28;20047;-78
2023/12/08 12:49:15;;;;;;;65.10;33.90;;;;;;;;;;5097009;28;20135;-78
2023/12/08 12:51:42;;;;;;;151.45;43.05;;;;;;;;;;5079798;28;20051;-78
2023/12/08 12:54:09;;;;;;;75.07;33.47;;;;;;;;;;5096524;28;20146;-79
2023/12/08 12:56:38;;;;;;;83.32;36.38;;;;;;;;;;5096583;28;20388;-79
2023/12/08 12:59:08;;;;;;;86.07;37.95;;;;;;;;;;5114131;28;20094;-79
2023/12/08 13:01:35;;;;;;;77.53;36.22;;;;;;;;;;5096476;28;20043;-79
2023/12/08 13:04:03;;;;;;;87.55;36.28;;;;;;;;;;5096363;28;20556;-79
2023/12/08 13:06:31;;;;;;;73.90;37.08;;;;;;;;;;5079510;28;20474;-79
2023/12/08 13:08:58;;;;;;;73.65;36.85;;;;;;;;;;5096381;28;20048;-79
2023/12/08 13:11:24;;;;;;;78.80;38.30;;;;;;;;;;5096429;28;20127;-79
2023/12/08 13:13:50;;;;;;;89.22;39.22;;;;;;;;;;5114241;28;20056;-79
2023/12/08 13:16:16;;;;;;;81.82;40.08;;;;;;;;;;5096325;28;20043;-79
2023/12/08 13:18:46;;;;;;;77.72;38.80;;;;;;;;;;5113627;28;20109;-79
2023/12/08 13:21:12;;;;;;;80.32;37.97;;;;;;;;;;5096230;28;20047;-79
2023/12/08 13:23:39;;;;;;;101.13;41.50;;;;;;;;;;5096252;28;20054;-79
2023/12/08 13:26:06;;;;;;;81.43;38.83;;;;;;;;;;5096227;28;20055;-79
2023/12/08 13:28:32;;;;;;;97.70;43.15;;;;;;;;;;5095889;28;20462;-79
2023/12/08 13:30:58;;;;;;;85.30;38.95;;;;;;;;;;5096223;28;20053;-79
2023/12/08 13:33:25;;;;;;;81.60;39.60;;;;;;;;;;5096107;28;20043;-79
2023/12/08 13:35:55;;;;;;;89.07;39.20;;;;;;;;;;5096156;28;20043;-79
2023/12/08 13:38:22;;;;;;;87.07;39.10;;;;;;;;;;5096115;28;20364;-78
2023/12/08 13:40:48;;;;;;;74.80;40.03;;;;;;;;;;5114049;28;20047;-79
2023/12/08 13:43:14;;;;;;;77.82;38.70;;;;;;;;;;5095667;28;20044;-78
2023/12/08 13:45:40;;;;;;;80.82;39.92;;;;;;;;;;5095749;28;20073;-79
2023/12/08 13:48:07;;;;;;;74.95;38.90;;;;;;;;;;5095989;28;20051;-78
2023/12/08 13:50:33;;;;;;;87.50;39.95;;;;;;;;;;5095987;28;20039;-78
2023/12/08 13:52:59;;;;;;;78.65;41.58;;;;;;;;;;5095982;28;20384;-78
2023/12/08 13:55:25;;;;;;;88.75;40.83;;;;;;;;;;5096457;28;20083;-78
2023/12/08 13:57:52;;;;;;;92.13;41.78;;;;;;;;;;5095498;28;20039;-79
2023/12/08 14:00:18;;;;;;;99.88;43.53;;;;;;;;;;5114357;28;20107;-78
2023/12/08 14:02:44;;;;;;;87.47;42.38;;;;;;;;;;5096133;28;20043;-78
2023/12/08 14:05:10;;;;;;;87.75;41.55;;;;;;;;;;5113728;28;20420;-78
2023/12/08 14:07:37;;;;;;;79.85;41.67;;;;;;;;;;5096671;28;20087;-78
2023/12/08 14:10:04;;;;;;;109.20;42.30;;;;;;;;;;5095931;28;20047;-78
2023/12/08 14:12:30;;;;;;;127.30;43.80;;;;;;;;;;5095783;28;20475;-78